sensor_id;sensor_type;location;lat;lon;timestamp;P1;durP1;ratioP1;P2;durP2;ratioP2
20056;SDS011;10189;49.546;7.906;2022-07-29T00:00:09;3.72;;;2.80;;
20056;SDS011;10189;49.546;7.906;2022-07-29T00:02:37;4.70;;;3.10;;
20056;SDS011;10189;49.546;7.906;2022-07-29T00:05:03;5.30;;;3.20;;
20056;SDS011;10189;49.546;7.906;2022-07-29T00:07:30;5.32;;;3.20;;
20056;SDS011;10189;49.546;7.906;2022-07-29T00:09:56;4.40;;;2.72;;
20056;SDS011;10189;49.546;7.906;2022-07-29T00:12:23;4.90;;;3.17;;
20056;SDS011;10189;49.546;7.906;2022-07-29T00:14:50;4.97;;;3.20;;
20056;SDS011;10189;49.546;7.906;2022-07-29T00:17:17;4.30;;;3.08;;
20056;SDS011;10189;49.546;7.906;2022-07-29T00:19:42;6.15;;;3.45;;
20056;SDS011;10189;49.546;7.906;2022-07-29T00:22:12;5.55;;;3.50;;
20056;SDS011;10189;49.546;7.906;2022-07-29T00:24:40;6.10;;;3.90;;
20056;SDS011;10189;49.546;7.906;2022-07-29T00:27:07;4.68;;;4.00;;
20056;SDS011;10189;49.546;7.906;2022-07-29T00:29:35;6.50;;;3.72;;
20056;SDS011;10189;49.546;7.906;2022-07-29T00:32:02;5.03;;;3.50;;
20056;SDS011;10189;49.546;7.906;2022-07-29T00:34:30;6.70;;;4.00;;
20056;SDS011;10189;49.546;7.906;2022-07-29T00:37:16;8.93;;;4.25;;
20056;SDS011;10189;49.546;7.906;2022-07-29T00:39:44;6.55;;;3.67;;
20056;SDS011;10189;49.546;7.906;2022-07-29T00:42:12;7.35;;;3.70;;
20056;SDS011;10189;49.546;7.906;2022-07-29T00:44:41;5.82;;;4.28;;
20056;SDS011;10189;49.546;7.906;2022-07-29T00:47:10;4.57;;;3.83;;
20056;SDS011;10189;49.546;7.906;2022-07-29T00:49:39;4.30;;;3.58;;
20056;SDS011;10189;49.546;7.906;2022-07-29T00:52:08;4.47;;;3.50;;
20056;SDS011;10189;49.546;7.906;2022-07-29T00:54:38;5.90;;;3.35;;
20056;SDS011;10189;49.546;7.906;2022-07-29T00:57:11;7.18;;;3.60;;
20056;SDS011;10189;49.546;7.906;2022-07-29T00:59:40;4.05;;;3.42;;
20056;SDS011;10189;49.546;7.906;2022-07-29T01:02:09;5.00;;;3.13;;
20056;SDS011;10189;49.546;7.906;2022-07-29T01:04:37;10.50;;;4.28;;
20056;SDS011;10189;49.546;7.906;2022-07-29T01:07:16;4.88;;;3.50;;
20056;SDS011;10189;49.546;7.906;2022-07-29T01:09:46;5.55;;;3.47;;
20056;SDS011;10189;49.546;7.906;2022-07-29T01:12:21;4.72;;;3.05;;
20056;SDS011;10189;49.546;7.906;2022-07-29T01:14:52;4.55;;;3.30;;
20056;SDS011;10189;49.546;7.906;2022-07-29T01:17:24;7.57;;;3.50;;
20056;SDS011;10189;49.546;7.906;2022-07-29T01:32:14;4.85;;;2.78;;
20056;SDS011;10189;49.546;7.906;2022-07-29T01:34:52;5.70;;;3.33;;
20056;SDS011;10189;49.546;7.906;2022-07-29T01:40:54;5.25;;;3.70;;
20056;SDS011;10189;49.546;7.906;2022-07-29T01:44:17;7.05;;;3.42;;
20056;SDS011;10189;49.546;7.906;2022-07-29T01:46:37;4.25;;;3.40;;
20056;SDS011;10189;49.546;7.906;2022-07-29T01:49:14;5.97;;;3.00;;
20056;SDS011;10189;49.546;7.906;2022-07-29T01:57:02;6.43;;;3.17;;
20056;SDS011;10189;49.546;7.906;2022-07-29T01:59:31;5.53;;;2.80;;
20056;SDS011;10189;49.546;7.906;2022-07-29T02:02:01;4.70;;;2.92;;
20056;SDS011;10189;49.546;7.906;2022-07-29T02:04:27;6.70;;;2.80;;
20056;SDS011;10189;49.546;7.906;2022-07-29T02:06:57;3.95;;;3.00;;
20056;SDS011;10189;49.546;7.906;2022-07-29T02:09:28;7.32;;;3.05;;
20056;SDS011;10189;49.546;7.906;2022-07-29T02:11:58;4.65;;;2.70;;
20056;SDS011;10189;49.546;7.906;2022-07-29T02:14:27;4.68;;;2.90;;
20056;SDS011;10189;49.546;7.906;2022-07-29T02:16:59;8.10;;;3.42;;
20056;SDS011;10189;49.546;7.906;2022-07-29T02:19:27;6.63;;;2.92;;
20056;SDS011;10189;49.546;7.906;2022-07-29T02:21:57;4.10;;;2.63;;
20056;SDS011;10189;49.546;7.906;2022-07-29T02:24:25;4.95;;;2.60;;
20056;SDS011;10189;49.546;7.906;2022-07-29T02:26:54;4.90;;;2.90;;
20056;SDS011;10189;49.546;7.906;2022-07-29T02:29:23;4.40;;;3.20;;
20056;SDS011;10189;49.546;7.906;2022-07-29T02:31:53;6.70;;;2.95;;
20056;SDS011;10189;49.546;7.906;2022-07-29T02:34:24;3.97;;;2.80;;
20056;SDS011;10189;49.546;7.906;2022-07-29T02:36:52;6.00;;;3.15;;
20056;SDS011;10189;49.546;7.906;2022-07-29T02:39:20;4.53;;;2.60;;
20056;SDS011;10189;49.546;7.906;2022-07-29T02:41:54;6.03;;;2.78;;
20056;SDS011;10189;49.546;7.906;2022-07-29T02:44:28;5.95;;;3.13;;
20056;SDS011;10189;49.546;7.906;2022-07-29T02:46:57;2.97;;;2.53;;
20056;SDS011;10189;49.546;7.906;2022-07-29T02:52:54;5.57;;;2.60;;
20056;SDS011;10189;49.546;7.906;2022-07-29T02:56:01;5.53;;;2.90;;
20056;SDS011;10189;49.546;7.906;2022-07-29T02:58:40;4.50;;;3.17;;
20056;SDS011;10189;49.546;7.906;2022-07-29T03:01:19;6.72;;;2.92;;
20056;SDS011;10189;49.546;7.906;2022-07-29T03:03:48;4.72;;;3.00;;
20056;SDS011;10189;49.546;7.906;2022-07-29T03:06:19;5.78;;;2.92;;
20056;SDS011;10189;49.546;7.906;2022-07-29T03:08:48;5.85;;;3.00;;
20056;SDS011;10189;49.546;7.906;2022-07-29T03:11:16;5.80;;;3.15;;
20056;SDS011;10189;49.546;7.906;2022-07-29T03:13:43;7.35;;;3.60;;
20056;SDS011;10189;49.546;7.906;2022-07-29T03:16:10;5.43;;;4.05;;
20056;SDS011;10189;49.546;7.906;2022-07-29T03:18:38;6.30;;;4.20;;
20056;SDS011;10189;49.546;7.906;2022-07-29T03:21:04;5.13;;;4.10;;
20056;SDS011;10189;49.546;7.906;2022-07-29T03:23:30;5.32;;;4.10;;
20056;SDS011;10189;49.546;7.906;2022-07-29T03:25:57;6.45;;;3.58;;
20056;SDS011;10189;49.546;7.906;2022-07-29T03:28:23;5.07;;;3.67;;
20056;SDS011;10189;49.546;7.906;2022-07-29T03:30:49;5.43;;;4.28;;
20056;SDS011;10189;49.546;7.906;2022-07-29T03:33:15;4.45;;;3.28;;
20056;SDS011;10189;49.546;7.906;2022-07-29T03:35:41;6.03;;;3.40;;
20056;SDS011;10189;49.546;7.906;2022-07-29T03:38:07;4.75;;;3.70;;
20056;SDS011;10189;49.546;7.906;2022-07-29T03:40:35;5.82;;;4.40;;
20056;SDS011;10189;49.546;7.906;2022-07-29T03:43:09;5.60;;;3.70;;
20056;SDS011;10189;49.546;7.906;2022-07-29T03:45:40;4.60;;;4.20;;
20056;SDS011;10189;49.546;7.906;2022-07-29T03:48:12;5.30;;;4.40;;
20056;SDS011;10189;49.546;7.906;2022-07-29T03:50:42;6.00;;;4.50;;
20056;SDS011;10189;49.546;7.906;2022-07-29T03:53:10;7.93;;;5.43;;
20056;SDS011;10189;49.546;7.906;2022-07-29T03:55:39;5.05;;;4.60;;
20056;SDS011;10189;49.546;7.906;2022-07-29T03:58:10;7.43;;;4.47;;
20056;SDS011;10189;49.546;7.906;2022-07-29T04:00:38;6.07;;;4.22;;
20056;SDS011;10189;49.546;7.906;2022-07-29T04:03:07;6.25;;;4.20;;
20056;SDS011;10189;49.546;7.906;2022-07-29T04:05:35;5.90;;;4.47;;
20056;SDS011;10189;49.546;7.906;2022-07-29T04:08:01;7.38;;;4.78;;
20056;SDS011;10189;49.546;7.906;2022-07-29T04:10:27;4.60;;;4.20;;
20056;SDS011;10189;49.546;7.906;2022-07-29T04:12:53;5.50;;;4.40;;
20056;SDS011;10189;49.546;7.906;2022-07-29T04:15:19;6.20;;;4.18;;
20056;SDS011;10189;49.546;7.906;2022-07-29T04:17:45;5.25;;;4.75;;
20056;SDS011;10189;49.546;7.906;2022-07-29T04:20:11;5.68;;;4.13;;
20056;SDS011;10189;49.546;7.906;2022-07-29T04:22:38;5.38;;;4.25;;
20056;SDS011;10189;49.546;7.906;2022-07-29T04:25:07;7.53;;;4.50;;
20056;SDS011;10189;49.546;7.906;2022-07-29T04:27:34;5.68;;;4.22;;
20056;SDS011;10189;49.546;7.906;2022-07-29T04:30:00;7.32;;;4.30;;
20056;SDS011;10189;49.546;7.906;2022-07-29T04:32:26;9.43;;;4.53;;
20056;SDS011;10189;49.546;7.906;2022-07-29T04:34:52;6.93;;;4.20;;
20056;SDS011;10189;49.546;7.906;2022-07-29T04:37:18;5.20;;;3.67;;
20056;SDS011;10189;49.546;7.906;2022-07-29T04:39:44;4.80;;;3.58;;
20056;SDS011;10189;49.546;7.906;2022-07-29T04:42:10;6.65;;;4.28;;
20056;SDS011;10189;49.546;7.906;2022-07-29T04:44:36;5.60;;;3.85;;
20056;SDS011;10189;49.546;7.906;2022-07-29T04:47:02;7.30;;;4.43;;
20056;SDS011;10189;49.546;7.906;2022-07-29T04:49:28;5.97;;;4.28;;
20056;SDS011;10189;49.546;7.906;2022-07-29T04:51:54;7.78;;;4.50;;
20056;SDS011;10189;49.546;7.906;2022-07-29T04:54:20;6.30;;;4.35;;
20056;SDS011;10189;49.546;7.906;2022-07-29T04:56:46;4.43;;;4.03;;
20056;SDS011;10189;49.546;7.906;2022-07-29T04:59:12;6.25;;;4.20;;
20056;SDS011;10189;49.546;7.906;2022-07-29T05:01:38;5.22;;;3.70;;
20056;SDS011;10189;49.546;7.906;2022-07-29T05:04:04;8.52;;;3.50;;
20056;SDS011;10189;49.546;7.906;2022-07-29T05:06:30;6.32;;;4.00;;
20056;SDS011;10189;49.546;7.906;2022-07-29T05:08:55;4.60;;;3.60;;
20056;SDS011;10189;49.546;7.906;2022-07-29T05:11:21;5.53;;;3.60;;
20056;SDS011;10189;49.546;7.906;2022-07-29T05:13:47;7.78;;;3.90;;
20056;SDS011;10189;49.546;7.906;2022-07-29T05:16:13;6.43;;;4.28;;
20056;SDS011;10189;49.546;7.906;2022-07-29T05:18:39;5.65;;;4.13;;
20056;SDS011;10189;49.546;7.906;2022-07-29T05:21:05;5.43;;;4.30;;
20056;SDS011;10189;49.546;7.906;2022-07-29T05:23:32;7.47;;;4.63;;
20056;SDS011;10189;49.546;7.906;2022-07-29T05:25:58;5.50;;;4.70;;
20056;SDS011;10189;49.546;7.906;2022-07-29T05:28:24;9.60;;;5.35;;
20056;SDS011;10189;49.546;7.906;2022-07-29T05:30:50;6.75;;;5.75;;
20056;SDS011;10189;49.546;7.906;2022-07-29T05:33:16;7.75;;;5.40;;
20056;SDS011;10189;49.546;7.906;2022-07-29T05:35:42;7.28;;;5.25;;
20056;SDS011;10189;49.546;7.906;2022-07-29T05:38:07;6.43;;;5.72;;
20056;SDS011;10189;49.546;7.906;2022-07-29T05:40:33;7.47;;;5.20;;
20056;SDS011;10189;49.546;7.906;2022-07-29T05:42:59;8.73;;;5.18;;
20056;SDS011;10189;49.546;7.906;2022-07-29T05:45:25;7.28;;;5.45;;
20056;SDS011;10189;49.546;7.906;2022-07-29T05:47:52;6.25;;;4.88;;
20056;SDS011;10189;49.546;7.906;2022-07-29T05:50:18;5.38;;;4.88;;
20056;SDS011;10189;49.546;7.906;2022-07-29T05:52:44;6.78;;;5.00;;
20056;SDS011;10189;49.546;7.906;2022-07-29T05:55:10;9.20;;;4.95;;
20056;SDS011;10189;49.546;7.906;2022-07-29T05:57:36;5.07;;;4.60;;
20056;SDS011;10189;49.546;7.906;2022-07-29T06:00:02;7.72;;;4.85;;
20056;SDS011;10189;49.546;7.906;2022-07-29T06:02:37;6.28;;;4.82;;
20056;SDS011;10189;49.546;7.906;2022-07-29T06:05:03;5.07;;;4.45;;
20056;SDS011;10189;49.546;7.906;2022-07-29T06:07:29;5.22;;;4.47;;
20056;SDS011;10189;49.546;7.906;2022-07-29T06:09:55;4.95;;;4.00;;
20056;SDS011;10189;49.546;7.906;2022-07-29T06:12:21;4.72;;;4.32;;
20056;SDS011;10189;49.546;7.906;2022-07-29T06:14:47;6.28;;;5.07;;
20056;SDS011;10189;49.546;7.906;2022-07-29T06:17:13;5.15;;;4.57;;
20056;SDS011;10189;49.546;7.906;2022-07-29T06:19:41;7.60;;;5.65;;
20056;SDS011;10189;49.546;7.906;2022-07-29T06:22:07;7.28;;;5.40;;
20056;SDS011;10189;49.546;7.906;2022-07-29T06:24:32;4.95;;;4.45;;
20056;SDS011;10189;49.546;7.906;2022-07-29T06:26:58;6.03;;;4.80;;
20056;SDS011;10189;49.546;7.906;2022-07-29T06:29:24;9.20;;;5.30;;
20056;SDS011;10189;49.546;7.906;2022-07-29T06:31:50;9.70;;;4.80;;
20056;SDS011;10189;49.546;7.906;2022-07-29T06:34:16;6.07;;;4.78;;
20056;SDS011;10189;49.546;7.906;2022-07-29T06:36:42;6.53;;;4.43;;
20056;SDS011;10189;49.546;7.906;2022-07-29T06:39:08;8.23;;;4.95;;
20056;SDS011;10189;49.546;7.906;2022-07-29T06:41:34;6.05;;;4.43;;
20056;SDS011;10189;49.546;7.906;2022-07-29T06:44:07;6.30;;;4.18;;
20056;SDS011;10189;49.546;7.906;2022-07-29T06:46:34;7.70;;;4.70;;
20056;SDS011;10189;49.546;7.906;2022-07-29T06:49:00;6.32;;;4.45;;
20056;SDS011;10189;49.546;7.906;2022-07-29T06:51:27;6.82;;;3.90;;
20056;SDS011;10189;49.546;7.906;2022-07-29T06:53:53;7.45;;;4.63;;
20056;SDS011;10189;49.546;7.906;2022-07-29T06:56:19;4.25;;;3.80;;
20056;SDS011;10189;49.546;7.906;2022-07-29T06:58:45;8.20;;;3.83;;
20056;SDS011;10189;49.546;7.906;2022-07-29T07:01:11;8.25;;;4.15;;
20056;SDS011;10189;49.546;7.906;2022-07-29T07:03:37;5.65;;;3.70;;
20056;SDS011;10189;49.546;7.906;2022-07-29T07:06:03;5.57;;;3.75;;
20056;SDS011;10189;49.546;7.906;2022-07-29T07:08:29;6.35;;;3.70;;
20056;SDS011;10189;49.546;7.906;2022-07-29T07:10:55;6.40;;;3.55;;
20056;SDS011;10189;49.546;7.906;2022-07-29T07:13:22;6.30;;;3.33;;
20056;SDS011;10189;49.546;7.906;2022-07-29T07:15:48;5.65;;;2.90;;
20056;SDS011;10189;49.546;7.906;2022-07-29T07:18:15;8.02;;;3.25;;
20056;SDS011;10189;49.546;7.906;2022-07-29T07:20:42;6.40;;;3.58;;
20056;SDS011;10189;49.546;7.906;2022-07-29T07:23:08;5.13;;;3.40;;
20056;SDS011;10189;49.546;7.906;2022-07-29T07:25:34;6.65;;;3.20;;
20056;SDS011;10189;49.546;7.906;2022-07-29T07:27:59;6.45;;;3.35;;
20056;SDS011;10189;49.546;7.906;2022-07-29T07:30:25;6.53;;;3.33;;
20056;SDS011;10189;49.546;7.906;2022-07-29T07:32:52;5.78;;;3.30;;
20056;SDS011;10189;49.546;7.906;2022-07-29T07:35:19;9.15;;;3.30;;
20056;SDS011;10189;49.546;7.906;2022-07-29T07:37:45;5.35;;;3.25;;
20056;SDS011;10189;49.546;7.906;2022-07-29T07:40:11;6.13;;;3.30;;
20056;SDS011;10189;49.546;7.906;2022-07-29T07:42:38;7.28;;;3.67;;
20056;SDS011;10189;49.546;7.906;2022-07-29T07:45:06;6.00;;;3.47;;
20056;SDS011;10189;49.546;7.906;2022-07-29T07:47:35;5.95;;;3.50;;
20056;SDS011;10189;49.546;7.906;2022-07-29T07:50:05;7.13;;;3.50;;
20056;SDS011;10189;49.546;7.906;2022-07-29T07:52:45;5.05;;;3.10;;
20056;SDS011;10189;49.546;7.906;2022-07-29T07:55:17;6.05;;;3.28;;
20056;SDS011;10189;49.546;7.906;2022-07-29T07:57:44;7.30;;;3.85;;
20056;SDS011;10189;49.546;7.906;2022-07-29T08:00:11;7.90;;;3.45;;
20056;SDS011;10189;49.546;7.906;2022-07-29T08:02:39;5.15;;;3.65;;
20056;SDS011;10189;49.546;7.906;2022-07-29T08:05:08;7.75;;;4.15;;
20056;SDS011;10189;49.546;7.906;2022-07-29T08:07:35;5.80;;;3.35;;
20056;SDS011;10189;49.546;7.906;2022-07-29T08:10:01;6.25;;;3.63;;
20056;SDS011;10189;49.546;7.906;2022-07-29T08:12:28;5.63;;;3.30;;
20056;SDS011;10189;49.546;7.906;2022-07-29T08:14:54;5.35;;;3.80;;
20056;SDS011;10189;49.546;7.906;2022-07-29T08:17:20;7.53;;;3.47;;
20056;SDS011;10189;49.546;7.906;2022-07-29T08:19:46;6.13;;;3.60;;
20056;SDS011;10189;49.546;7.906;2022-07-29T08:22:13;5.90;;;3.60;;
20056;SDS011;10189;49.546;7.906;2022-07-29T08:24:39;6.25;;;3.83;;
20056;SDS011;10189;49.546;7.906;2022-07-29T08:27:11;5.32;;;3.72;;
20056;SDS011;10189;49.546;7.906;2022-07-29T08:29:38;7.45;;;3.67;;
20056;SDS011;10189;49.546;7.906;2022-07-29T08:32:05;6.57;;;3.78;;
20056;SDS011;10189;49.546;7.906;2022-07-29T08:34:31;6.32;;;3.60;;
20056;SDS011;10189;49.546;7.906;2022-07-29T08:36:58;6.88;;;3.72;;
20056;SDS011;10189;49.546;7.906;2022-07-29T08:39:24;4.65;;;3.70;;
20056;SDS011;10189;49.546;7.906;2022-07-29T08:41:50;4.70;;;3.92;;
20056;SDS011;10189;49.546;7.906;2022-07-29T08:44:20;5.68;;;4.00;;
20056;SDS011;10189;49.546;7.906;2022-07-29T08:46:47;5.75;;;3.75;;
20056;SDS011;10189;49.546;7.906;2022-07-29T08:49:14;4.03;;;3.30;;
20056;SDS011;10189;49.546;7.906;2022-07-29T08:51:41;6.38;;;3.53;;
20056;SDS011;10189;49.546;7.906;2022-07-29T08:54:09;5.65;;;3.60;;
20056;SDS011;10189;49.546;7.906;2022-07-29T08:56:36;5.65;;;4.10;;
20056;SDS011;10189;49.546;7.906;2022-07-29T08:59:04;7.07;;;4.10;;
20056;SDS011;10189;49.546;7.906;2022-07-29T09:01:34;5.57;;;4.10;;
20056;SDS011;10189;49.546;7.906;2022-07-29T09:04:06;7.88;;;4.30;;
20056;SDS011;10189;49.546;7.906;2022-07-29T09:06:37;6.00;;;4.10;;
20056;SDS011;10189;49.546;7.906;2022-07-29T09:09:08;5.88;;;4.00;;
20056;SDS011;10189;49.546;7.906;2022-07-29T09:11:34;5.82;;;4.43;;
20056;SDS011;10189;49.546;7.906;2022-07-29T09:14:01;9.50;;;4.40;;
20056;SDS011;10189;49.546;7.906;2022-07-29T09:16:43;6.05;;;4.38;;
20056;SDS011;10189;49.546;7.906;2022-07-29T09:19:28;6.57;;;4.27;;
20056;SDS011;10189;49.546;7.906;2022-07-29T09:22:02;6.50;;;4.05;;
20056;SDS011;10189;49.546;7.906;2022-07-29T09:24:41;6.97;;;4.70;;
20056;SDS011;10189;49.546;7.906;2022-07-29T09:27:22;5.78;;;4.50;;
20056;SDS011;10189;49.546;7.906;2022-07-29T09:29:57;7.00;;;4.28;;
20056;SDS011;10189;49.546;7.906;2022-07-29T09:32:29;6.90;;;4.38;;
20056;SDS011;10189;49.546;7.906;2022-07-29T09:37:46;6.03;;;4.45;;
20056;SDS011;10189;49.546;7.906;2022-07-29T09:40:17;4.95;;;4.25;;
20056;SDS011;10189;49.546;7.906;2022-07-29T09:42:49;7.03;;;4.90;;
20056;SDS011;10189;49.546;7.906;2022-07-29T09:45:26;5.75;;;4.30;;
20056;SDS011;10189;49.546;7.906;2022-07-29T09:47:55;6.22;;;4.53;;
20056;SDS011;10189;49.546;7.906;2022-07-29T09:50:38;7.50;;;4.72;;
20056;SDS011;10189;49.546;7.906;2022-07-29T09:53:05;4.63;;;4.22;;
20056;SDS011;10189;49.546;7.906;2022-07-29T09:55:31;5.22;;;4.47;;
20056;SDS011;10189;49.546;7.906;2022-07-29T10:00:44;7.57;;;4.63;;
20056;SDS011;10189;49.546;7.906;2022-07-29T10:03:12;4.30;;;3.90;;
20056;SDS011;10189;49.546;7.906;2022-07-29T10:05:40;4.93;;;4.50;;
20056;SDS011;10189;49.546;7.906;2022-07-29T10:08:08;5.10;;;4.13;;
20056;SDS011;10189;49.546;7.906;2022-07-29T10:10:39;5.90;;;4.95;;
20056;SDS011;10189;49.546;7.906;2022-07-29T10:13:08;5.23;;;4.23;;
20056;SDS011;10189;49.546;7.906;2022-07-29T10:15:38;7.32;;;4.88;;
20056;SDS011;10189;49.546;7.906;2022-07-29T10:18:09;6.57;;;4.65;;
20056;SDS011;10189;49.546;7.906;2022-07-29T10:20:37;4.97;;;4.47;;
20056;SDS011;10189;49.546;7.906;2022-07-29T10:23:04;4.90;;;4.40;;
20056;SDS011;10189;49.546;7.906;2022-07-29T10:25:31;4.68;;;4.03;;
20056;SDS011;10189;49.546;7.906;2022-07-29T10:27:57;6.55;;;4.88;;
20056;SDS011;10189;49.546;7.906;2022-07-29T10:30:24;7.38;;;4.38;;
20056;SDS011;10189;49.546;7.906;2022-07-29T10:35:43;7.25;;;4.70;;
20056;SDS011;10189;49.546;7.906;2022-07-29T10:41:33;5.72;;;4.53;;
20056;SDS011;10189;49.546;7.906;2022-07-29T10:44:21;7.60;;;4.70;;
20056;SDS011;10189;49.546;7.906;2022-07-29T10:46:50;8.13;;;4.40;;
20056;SDS011;10189;49.546;7.906;2022-07-29T10:49:25;4.97;;;4.28;;
20056;SDS011;10189;49.546;7.906;2022-07-29T10:52:07;4.95;;;4.18;;
20056;SDS011;10189;49.546;7.906;2022-07-29T10:54:47;5.47;;;4.97;;
20056;SDS011;10189;49.546;7.906;2022-07-29T11:07:33;4.78;;;4.35;;
20056;SDS011;10189;49.546;7.906;2022-07-29T11:20:35;5.80;;;4.72;;
20056;SDS011;10189;49.546;7.906;2022-07-29T11:26:19;5.75;;;4.70;;
20056;SDS011;10189;49.546;7.906;2022-07-29T11:31:36;4.75;;;4.35;;
20056;SDS011;10189;49.546;7.906;2022-07-29T11:39:36;8.90;;;4.30;;
20056;SDS011;10189;49.546;7.906;2022-07-29T11:47:22;7.13;;;4.47;;
20056;SDS011;10189;49.546;7.906;2022-07-29T11:49:50;4.32;;;3.92;;
20056;SDS011;10189;49.546;7.906;2022-07-29T11:52:17;4.38;;;3.90;;
20056;SDS011;10189;49.546;7.906;2022-07-29T11:54:45;5.15;;;4.03;;
20056;SDS011;10189;49.546;7.906;2022-07-29T11:57:19;7.93;;;4.22;;
20056;SDS011;10189;49.546;7.906;2022-07-29T11:59:46;4.78;;;4.13;;
20056;SDS011;10189;49.546;7.906;2022-07-29T12:02:13;5.85;;;3.90;;
20056;SDS011;10189;49.546;7.906;2022-07-29T12:04:54;7.28;;;4.40;;
20056;SDS011;10189;49.546;7.906;2022-07-29T12:07:29;6.50;;;4.50;;
20056;SDS011;10189;49.546;7.906;2022-07-29T12:09:59;8.07;;;4.35;;
20056;SDS011;10189;49.546;7.906;2022-07-29T12:12:26;5.75;;;3.60;;
20056;SDS011;10189;49.546;7.906;2022-07-29T12:14:52;5.70;;;3.70;;
20056;SDS011;10189;49.546;7.906;2022-07-29T12:17:31;6.43;;;4.10;;
20056;SDS011;10189;49.546;7.906;2022-07-29T12:20:00;5.93;;;3.25;;
20056;SDS011;10189;49.546;7.906;2022-07-29T12:22:33;3.53;;;3.22;;
20056;SDS011;10189;49.546;7.906;2022-07-29T12:25:12;7.50;;;3.75;;
20056;SDS011;10189;49.546;7.906;2022-07-29T12:27:40;3.63;;;3.33;;
20056;SDS011;10189;49.546;7.906;2022-07-29T12:30:09;4.88;;;3.13;;
20056;SDS011;10189;49.546;7.906;2022-07-29T12:32:38;4.35;;;3.13;;
20056;SDS011;10189;49.546;7.906;2022-07-29T12:35:15;8.25;;;3.20;;
20056;SDS011;10189;49.546;7.906;2022-07-29T12:37:45;5.95;;;3.50;;
20056;SDS011;10189;49.546;7.906;2022-07-29T12:40:15;4.78;;;3.15;;
20056;SDS011;10189;49.546;7.906;2022-07-29T12:45:44;8.63;;;3.40;;
20056;SDS011;10189;49.546;7.906;2022-07-29T12:48:15;3.88;;;3.20;;
20056;SDS011;10189;49.546;7.906;2022-07-29T12:50:56;7.60;;;3.20;;
20056;SDS011;10189;49.546;7.906;2022-07-29T12:53:25;3.78;;;2.97;;
20056;SDS011;10189;49.546;7.906;2022-07-29T12:55:52;4.18;;;2.63;;
20056;SDS011;10189;49.546;7.906;2022-07-29T13:14:09;4.10;;;2.85;;
20056;SDS011;10189;49.546;7.906;2022-07-29T13:22:23;3.92;;;3.20;;
20056;SDS011;10189;49.546;7.906;2022-07-29T13:24:56;6.18;;;3.33;;
20056;SDS011;10189;49.546;7.906;2022-07-29T13:27:31;3.78;;;2.50;;
20056;SDS011;10189;49.546;7.906;2022-07-29T13:29:59;3.97;;;2.90;;
20056;SDS011;10189;49.546;7.906;2022-07-29T13:32:28;3.90;;;3.00;;
20056;SDS011;10189;49.546;7.906;2022-07-29T13:34:56;4.65;;;2.90;;
20056;SDS011;10189;49.546;7.906;2022-07-29T13:37:25;4.40;;;3.03;;
20056;SDS011;10189;49.546;7.906;2022-07-29T13:39:54;5.63;;;2.90;;
20056;SDS011;10189;49.546;7.906;2022-07-29T13:42:21;5.55;;;2.70;;
20056;SDS011;10189;49.546;7.906;2022-07-29T13:44:48;4.30;;;2.70;;
20056;SDS011;10189;49.546;7.906;2022-07-29T13:47:16;5.63;;;2.80;;
20056;SDS011;10189;49.546;7.906;2022-07-29T13:49:46;5.03;;;3.20;;
20056;SDS011;10189;49.546;7.906;2022-07-29T13:52:13;6.25;;;2.75;;
20056;SDS011;10189;49.546;7.906;2022-07-29T13:54:39;5.78;;;2.80;;
20056;SDS011;10189;49.546;7.906;2022-07-29T13:57:05;6.43;;;3.13;;
20056;SDS011;10189;49.546;7.906;2022-07-29T13:59:32;4.60;;;2.88;;
20056;SDS011;10189;49.546;7.906;2022-07-29T14:01:58;4.13;;;2.63;;
20056;SDS011;10189;49.546;7.906;2022-07-29T14:04:24;7.82;;;2.80;;
20056;SDS011;10189;49.546;7.906;2022-07-29T14:06:50;6.95;;;3.10;;
20056;SDS011;10189;49.546;7.906;2022-07-29T14:09:16;5.10;;;2.78;;
20056;SDS011;10189;49.546;7.906;2022-07-29T14:11:42;3.75;;;2.90;;
20056;SDS011;10189;49.546;7.906;2022-07-29T14:14:08;5.07;;;2.97;;
20056;SDS011;10189;49.546;7.906;2022-07-29T14:16:35;3.10;;;2.80;;
20056;SDS011;10189;49.546;7.906;2022-07-29T14:19:01;6.72;;;3.10;;
20056;SDS011;10189;49.546;7.906;2022-07-29T14:21:28;4.53;;;2.88;;
20056;SDS011;10189;49.546;7.906;2022-07-29T14:23:54;7.22;;;2.67;;
20056;SDS011;10189;49.546;7.906;2022-07-29T14:26:21;5.47;;;2.80;;
20056;SDS011;10189;49.546;7.906;2022-07-29T14:28:48;4.90;;;2.83;;
20056;SDS011;10189;49.546;7.906;2022-07-29T14:31:15;4.40;;;2.60;;
20056;SDS011;10189;49.546;7.906;2022-07-29T14:33:41;5.20;;;2.40;;
20056;SDS011;10189;49.546;7.906;2022-07-29T14:36:08;4.35;;;2.63;;
20056;SDS011;10189;49.546;7.906;2022-07-29T14:38:34;4.25;;;2.85;;
20056;SDS011;10189;49.546;7.906;2022-07-29T14:41:02;6.50;;;2.60;;
20056;SDS011;10189;49.546;7.906;2022-07-29T14:43:28;6.85;;;2.40;;
20056;SDS011;10189;49.546;7.906;2022-07-29T14:45:55;5.95;;;2.47;;
20056;SDS011;10189;49.546;7.906;2022-07-29T14:48:21;6.88;;;2.92;;
20056;SDS011;10189;49.546;7.906;2022-07-29T14:50:47;4.53;;;2.58;;
20056;SDS011;10189;49.546;7.906;2022-07-29T14:53:13;5.13;;;2.50;;
20056;SDS011;10189;49.546;7.906;2022-07-29T14:55:40;3.67;;;2.40;;
20056;SDS011;10189;49.546;7.906;2022-07-29T14:58:07;4.50;;;2.58;;
20056;SDS011;10189;49.546;7.906;2022-07-29T15:00:34;5.00;;;2.40;;
20056;SDS011;10189;49.546;7.906;2022-07-29T15:03:02;5.38;;;2.63;;
20056;SDS011;10189;49.546;7.906;2022-07-29T15:05:29;5.13;;;2.15;;
20056;SDS011;10189;49.546;7.906;2022-07-29T15:07:56;3.78;;;2.40;;
20056;SDS011;10189;49.546;7.906;2022-07-29T15:10:24;2.97;;;2.22;;
20056;SDS011;10189;49.546;7.906;2022-07-29T15:12:52;2.90;;;2.40;;
20056;SDS011;10189;49.546;7.906;2022-07-29T15:15:19;5.13;;;2.30;;
20056;SDS011;10189;49.546;7.906;2022-07-29T15:17:45;2.83;;;2.63;;
20056;SDS011;10189;49.546;7.906;2022-07-29T15:20:12;5.07;;;2.40;;
20056;SDS011;10189;49.546;7.906;2022-07-29T15:22:38;5.03;;;2.70;;
20056;SDS011;10189;49.546;7.906;2022-07-29T15:25:07;5.38;;;2.58;;
20056;SDS011;10189;49.546;7.906;2022-07-29T15:27:34;7.82;;;2.75;;
20056;SDS011;10189;49.546;7.906;2022-07-29T15:30:00;4.68;;;2.50;;
20056;SDS011;10189;49.546;7.906;2022-07-29T15:32:27;4.90;;;2.50;;
20056;SDS011;10189;49.546;7.906;2022-07-29T15:34:52;4.65;;;2.67;;
20056;SDS011;10189;49.546;7.906;2022-07-29T15:37:18;3.33;;;2.50;;
20056;SDS011;10189;49.546;7.906;2022-07-29T15:39:44;3.40;;;2.28;;
20056;SDS011;10189;49.546;7.906;2022-07-29T15:42:10;3.03;;;2.30;;
20056;SDS011;10189;49.546;7.906;2022-07-29T15:44:36;3.22;;;2.33;;
20056;SDS011;10189;49.546;7.906;2022-07-29T15:47:02;4.10;;;2.30;;
20056;SDS011;10189;49.546;7.906;2022-07-29T15:49:32;7.22;;;3.30;;
20056;SDS011;10189;49.546;7.906;2022-07-29T15:52:04;9.13;;;2.63;;
20056;SDS011;10189;49.546;7.906;2022-07-29T15:54:34;6.07;;;3.00;;
20056;SDS011;10189;49.546;7.906;2022-07-29T15:57:02;6.00;;;2.40;;
20056;SDS011;10189;49.546;7.906;2022-07-29T15:59:30;5.05;;;2.90;;
20056;SDS011;10189;49.546;7.906;2022-07-29T16:01:56;5.20;;;2.47;;
20056;SDS011;10189;49.546;7.906;2022-07-29T16:04:22;3.42;;;2.60;;
20056;SDS011;10189;49.546;7.906;2022-07-29T16:06:49;6.53;;;2.30;;
20056;SDS011;10189;49.546;7.906;2022-07-29T16:09:15;3.40;;;2.05;;
20056;SDS011;10189;49.546;7.906;2022-07-29T16:11:42;3.55;;;2.00;;
20056;SDS011;10189;49.546;7.906;2022-07-29T16:14:10;3.80;;;2.13;;
20056;SDS011;10189;49.546;7.906;2022-07-29T16:16:37;2.40;;;1.92;;
20056;SDS011;10189;49.546;7.906;2022-07-29T16:19:04;2.60;;;1.83;;
20056;SDS011;10189;49.546;7.906;2022-07-29T16:21:30;2.85;;;2.08;;
20056;SDS011;10189;49.546;7.906;2022-07-29T16:23:57;2.08;;;1.77;;
20056;SDS011;10189;49.546;7.906;2022-07-29T16:26:24;3.95;;;2.03;;
20056;SDS011;10189;49.546;7.906;2022-07-29T16:28:51;2.25;;;1.88;;
20056;SDS011;10189;49.546;7.906;2022-07-29T16:31:17;3.08;;;1.80;;
20056;SDS011;10189;49.546;7.906;2022-07-29T16:33:47;3.55;;;2.33;;